Time;durP1;ratioP1;P1;durP2;ratioP2;P2;SDS_P1;SDS_P2;PMS_P1;PMS_P2;Temp;Humidity;BMP_temperature;BMP_pressure;BME280_temperature;BME280_humidity;BME280_pressure;Samples;Min_cycle;Max_cycle;Signal;HPM_P1;HPM_P2
2024/04/26 00:01:02;;;;;;;;;;;23.70;55.00;;;;;;5427543;26;19945;-39
2024/04/26 00:03:28;;;;;;;;;;;23.70;54.90;;;;;;5428398;26;19937;-40
2024/04/26 00:05:55;;;;;;;;;;;23.70;54.90;;;;;;5427688;26;19939;-40
2024/04/26 00:08:23;;;;;;;;;;;23.70;55.00;;;;;;5428323;26;19941;-40
2024/04/26 00:10:48;;;;;;;;;;;23.60;55.00;;;;;;5427629;26;19935;-39
2024/04/26 00:13:14;;;;;;;;;;;23.60;55.70;;;;;;5428148;26;19928;-39
2024/04/26 00:15:40;;;;;;;;;;;23.60;55.10;;;;;;5427345;26;19928;-40
2024/04/26 00:18:06;;;;;;;;;;;23.60;55.20;;;;;;5428100;26;19937;-41
2024/04/26 00:20:33;;;;;;;;;;;23.60;55.10;;;;;;5427575;26;19929;-39
2024/04/26 00:22:59;;;;;;;;;;;23.60;55.10;;;;;;5427202;26;19999;-39
2024/04/26 00:25:25;;;;;;;;;;;23.60;55.00;;;;;;5428024;26;19937;-38
2024/04/26 00:27:51;;;;;;;;;;;23.60;54.90;;;;;;5427343;26;19929;-40
2024/04/26 00:30:17;;;;;;;;;;;23.60;54.90;;;;;;5427801;26;19936;-40
2024/04/26 00:32:43;;;;;;;;;;;23.60;54.90;;;;;;5420000;26;19930;-40
2024/04/26 00:35:09;;;;;;;;;;;23.60;55.00;;;;;;5427835;26;19953;-42
2024/04/26 00:37:36;;;;;;;;;;;23.50;54.80;;;;;;5427493;26;19937;-40
2024/04/26 00:40:02;;;;;;;;;;;23.60;54.90;;;;;;5425422;26;19961;-40
2024/04/26 00:42:28;;;;;;;;;;;23.50;54.70;;;;;;5427594;26;19929;-39
2024/04/26 00:44:54;;;;;;;;;;;23.50;55.00;;;;;;5427589;26;19972;-40
2024/04/26 00:47:20;;;;;;;;;;;23.50;55.10;;;;;;5427361;26;19936;-40
2024/04/26 00:50:06;;;;;;;;;;;23.50;55.30;;;;;;5319134;27;20004;-40
2024/04/26 00:52:32;;;;;;;;;;;23.40;55.20;;;;;;5318503;27;19938;-40
2024/04/26 00:54:58;;;;;;;;;;;23.40;55.30;;;;;;5290533;26;20436;-41
2024/04/26 00:57:24;;;;;;;;;;;23.40;55.40;;;;;;5319266;27;19938;-39
2024/04/26 00:59:52;;;;;;;;;;;23.40;55.30;;;;;;5318197;27;20280;-40
2024/04/26 01:02:18;;;;;;;;;;;23.40;55.20;;;;;;5317159;27;19930;-40
2024/04/26 01:04:44;;;;;;;;;;;23.40;55.40;;;;;;5289801;27;19938;-40
2024/04/26 01:07:10;;;;;;;;;;;23.40;55.40;;;;;;5318899;26;19958;-41
2024/04/26 01:09:36;;;;;;;;;;;23.40;55.30;;;;;;5319022;27;19935;-41
2024/04/26 01:12:03;;;;;;;;;;;23.40;55.30;;;;;;5316589;27;20011;-40
2024/04/26 01:14:30;;;;;;;;;;;23.30;55.30;;;;;;5319259;27;19962;-40
2024/04/26 01:16:58;;;;;;;;;;;23.30;55.20;;;;;;5290052;27;19931;-39
2024/04/26 01:19:24;;;;;;;;;;;23.30;55.30;;;;;;5312951;27;19930;-40
2024/04/26 01:21:50;;;;;;;;;;;23.30;55.50;;;;;;5317875;27;19966;-39
2024/04/26 01:24:16;;;;;;;;;;;23.30;55.50;;;;;;5318504;27;19946;-39
2024/04/26 01:26:42;;;;;;;;;;;23.30;55.60;;;;;;5349788;26;19936;-40
2024/04/26 01:29:11;;;;;;;;;;;23.30;55.70;;;;;;5370932;26;19937;-41
2024/04/26 01:31:37;;;;;;;;;;;23.20;56.10;;;;;;5419992;26;20677;-40
2024/04/26 01:34:03;;;;;;;;;;;23.20;55.50;;;;;;5426822;26;19975;-40
2024/04/26 01:36:29;;;;;;;;;;;23.20;55.50;;;;;;5426960;26;20818;-40
2024/04/26 01:38:55;;;;;;;;;;;23.20;55.50;;;;;;5426238;26;19933;-41
2024/04/26 01:41:21;;;;;;;;;;;23.20;55.40;;;;;;5425001;26;19929;-40
2024/04/26 01:43:48;;;;;;;;;;;23.20;55.40;;;;;;5426418;26;19937;-39
2024/04/26 01:46:13;;;;;;;;;;;23.10;55.50;;;;;;5427290;26;19929;-40
2024/04/26 01:48:39;;;;;;;;;;;23.20;55.50;;;;;;5426036;26;20058;-40
2024/04/26 01:51:10;;;;;;;;;;;23.10;55.40;;;;;;5426156;26;19933;-40
2024/04/26 01:53:36;;;;;;;;;;;23.10;55.30;;;;;;5382120;26;19929;-40
2024/04/26 01:56:02;;;;;;;;;;;23.10;55.20;;;;;;5425590;26;19939;-40
2024/04/26 01:58:28;;;;;;;;;;;23.10;54.80;;;;;;5426716;26;20366;-40
2024/04/26 02:00:57;;;;;;;;;;;23.10;54.80;;;;;;5423483;26;19929;-39
2024/04/26 02:03:23;;;;;;;;;;;23.10;54.70;;;;;;5426221;26;19935;-39
2024/04/26 02:05:49;;;;;;;;;;;23.10;54.80;;;;;;5426008;26;20129;-40
2024/04/26 02:08:15;;;;;;;;;;;23.10;54.70;;;;;;5426206;26;19929;-39
2024/04/26 02:10:41;;;;;;;;;;;23.00;54.90;;;;;;5425711;26;19933;-42
2024/04/26 02:13:07;;;;;;;;;;;23.00;54.60;;;;;;5426004;26;19941;-39
2024/04/26 02:15:33;;;;;;;;;;;23.00;54.70;;;;;;5426411;26;19933;-39
2024/04/26 02:18:00;;;;;;;;;;;22.90;54.70;;;;;;5425803;26;19937;-43
2024/04/26 02:20:26;;;;;;;;;;;23.00;54.80;;;;;;5383972;26;19929;-40
2024/04/26 02:22:52;;;;;;;;;;;22.90;54.90;;;;;;5422656;26;19929;-39
2024/04/26 02:25:18;;;;;;;;;;;22.90;54.80;;;;;;5426044;26;19929;-39
2024/04/26 02:27:44;;;;;;;;;;;22.90;54.70;;;;;;5425536;26;19940;-40
2024/04/26 02:30:10;;;;;;;;;;;22.90;54.70;;;;;;5425720;26;20261;-40
2024/04/26 02:32:36;;;;;;;;;;;22.80;54.70;;;;;;5423819;26;19933;-40
2024/04/26 02:35:02;;;;;;;;;;;22.80;54.80;;;;;;5425655;26;19937;-41
2024/04/26 02:37:28;;;;;;;;;;;22.80;54.70;;;;;;5425956;26;19935;-40
2024/04/26 02:39:54;;;;;;;;;;;22.80;54.70;;;;;;5425502;26;19940;-41
2024/04/26 02:42:20;;;;;;;;;;;22.80;54.70;;;;;;5425361;26;19929;-40
2024/04/26 02:44:48;;;;;;;;;;;22.80;54.70;;;;;;5425993;26;19932;-40
2024/04/26 02:47:14;;;;;;;;;;;22.70;54.60;;;;;;5425418;26;19975;-40
2024/04/26 02:49:40;;;;;;;;;;;22.70;54.60;;;;;;5425497;26;19941;-40
2024/04/26 02:52:08;;;;;;;;;;;22.70;54.70;;;;;;5424939;26;19929;-41
2024/04/26 02:54:33;;;;;;;;;;;22.70;54.60;;;;;;5392691;26;19936;-40
2024/04/26 02:57:00;;;;;;;;;;;22.70;54.70;;;;;;5425171;26;19957;-39
2024/04/26 02:59:26;;;;;;;;;;;22.60;54.60;;;;;;5422363;26;19928;-41
2024/04/26 03:01:52;;;;;;;;;;;22.60;54.80;;;;;;5420481;26;19933;-40
2024/04/26 03:04:18;;;;;;;;;;;22.60;54.70;;;;;;5425218;26;20748;-39
2024/04/26 03:06:43;;;;;;;;;;;22.60;54.70;;;;;;5424415;26;19937;-39
2024/04/26 03:09:09;;;;;;;;;;;22.60;54.80;;;;;;5420381;26;19936;-39
2024/04/26 03:11:35;;;;;;;;;;;22.60;54.80;;;;;;5426974;26;19929;-39
2024/04/26 03:14:03;;;;;;;;;;;22.50;54.80;;;;;;5427169;26;19936;-40
2024/04/26 03:16:29;;;;;;;;;;;22.50;54.80;;;;;;5428468;26;19929;-39
2024/04/26 03:18:55;;;;;;;;;;;22.50;54.80;;;;;;5428107;26;19941;-39
2024/04/26 03:21:21;;;;;;;;;;;22.50;54.80;;;;;;5429073;26;19933;-41
2024/04/26 03:23:47;;;;;;;;;;;22.40;54.80;;;;;;5428568;26;19940;-40
2024/04/26 03:26:13;;;;;;;;;;;22.40;54.70;;;;;;5428629;26;19936;-42
2024/04/26 03:28:39;;;;;;;;;;;22.40;54.80;;;;;;5429552;26;19942;-40
2024/04/26 03:31:04;;;;;;;;;;;22.40;54.80;;;;;;5427537;26;19929;-43
2024/04/26 03:33:30;;;;;;;;;;;22.40;54.80;;;;;;5421000;26;19953;-40
2024/04/26 03:35:56;;;;;;;;;;;22.30;54.80;;;;;;5427970;26;20334;-40
2024/04/26 03:38:22;;;;;;;;;;;22.30;54.80;;;;;;5396524;26;19936;-40
2024/04/26 03:40:48;;;;;;;;;;;22.30;54.90;;;;;;5427274;26;19929;-40
2024/04/26 03:43:17;;;;;;;;;;;22.30;55.00;;;;;;5427615;26;19961;-39
2024/04/26 03:45:43;;;;;;;;;;;22.30;54.90;;;;;;5427473;26;19929;-40
2024/04/26 03:48:09;;;;;;;;;;;22.30;55.00;;;;;;5428371;26;19933;-40
2024/04/26 03:50:35;;;;;;;;;;;22.20;54.90;;;;;;5428278;26;19929;-40
2024/04/26 03:53:01;;;;;;;;;;;22.20;55.00;;;;;;5427127;26;19929;-39
2024/04/26 03:55:27;;;;;;;;;;;22.20;55.00;;;;;;5427696;26;20362;-39
2024/04/26 03:57:53;;;;;;;;;;;22.20;55.10;;;;;;5427768;26;19957;-40
2024/04/26 04:00:19;;;;;;;;;;;22.20;55.10;;;;;;5426763;26;19936;-40
2024/04/26 04:02:45;;;;;;;;;;;22.20;55.10;;;;;;5421042;26;19940;-38
2024/04/26 04:05:11;;;;;;;;;;;22.10;55.10;;;;;;5427656;26;19998;-40
2024/04/26 04:07:36;;;;;;;;;;;22.10;55.10;;;;;;5427844;26;19929;-39
2024/04/26 04:10:02;;;;;;;;;;;22.10;55.10;;;;;;5427301;26;19929;-40
2024/04/26 04:12:28;;;;;;;;;;;22.10;55.20;;;;;;5427527;26;19933;-40
2024/04/26 04:14:57;;;;;;;;;;;22.10;55.20;;;;;;5427430;26;19929;-39
2024/04/26 04:17:23;;;;;;;;;;;22.00;55.20;;;;;;5428035;26;19929;-40
2024/04/26 04:19:49;;;;;;;;;;;22.00;55.20;;;;;;5427385;26;20110;-42
2024/04/26 04:22:15;;;;;;;;;;;22.00;55.20;;;;;;5427517;26;19952;-40
2024/04/26 04:24:41;;;;;;;;;;;22.00;55.30;;;;;;5426698;26;20381;-40
2024/04/26 04:27:06;;;;;;;;;;;22.00;55.30;;;;;;5427789;26;19928;-40
2024/04/26 04:29:32;;;;;;;;;;;22.00;55.30;;;;;;5428079;26;19929;-42
2024/04/26 04:31:58;;;;;;;;;;;21.90;55.30;;;;;;5419147;26;19933;-39
2024/04/26 04:34:24;;;;;;;;;;;21.90;55.30;;;;;;5427153;26;19936;-39
2024/04/26 04:36:50;;;;;;;;;;;21.90;56.00;;;;;;5426628;26;19936;-39
2024/04/26 04:39:16;;;;;;;;;;;21.90;55.40;;;;;;5426801;26;19974;-40
2024/04/26 04:41:42;;;;;;;;;;;21.90;55.40;;;;;;5426043;26;19958;-40
2024/04/26 04:44:08;;;;;;;;;;;21.90;55.50;;;;;;5426395;26;20387;-40
2024/04/26 04:46:34;;;;;;;;;;;21.80;55.40;;;;;;5427042;26;20019;-40
2024/04/26 04:49:01;;;;;;;;;;;21.80;55.50;;;;;;5427042;26;19936;-39
2024/04/26 04:51:27;;;;;;;;;;;21.80;55.50;;;;;;5419491;26;19929;-40
2024/04/26 04:53:53;;;;;;;;;;;21.80;55.50;;;;;;5405919;26;19936;-40
2024/04/26 04:56:19;;;;;;;;;;;21.80;55.50;;;;;;5404310;26;19935;-40
2024/04/26 04:58:45;;;;;;;;;;;21.80;55.50;;;;;;5403465;26;19947;-40
2024/04/26 05:01:11;;;;;;;;;;;21.80;55.50;;;;;;5400151;26;19947;-40
2024/04/26 05:03:36;;;;;;;;;;;21.70;55.50;;;;;;5407407;26;19936;-41
2024/04/26 05:06:03;;;;;;;;;;;21.70;55.60;;;;;;5404933;26;19998;-40
2024/04/26 05:08:29;;;;;;;;;;;21.70;55.60;;;;;;5404909;26;19929;-40
2024/04/26 05:10:55;;;;;;;;;;;21.70;55.60;;;;;;5406955;26;19948;-39
2024/04/26 05:13:21;;;;;;;;;;;21.70;55.70;;;;;;5403739;26;19928;-40
2024/04/26 05:15:47;;;;;;;;;;;21.70;55.60;;;;;;5404592;26;19929;-40
2024/04/26 05:18:14;;;;;;;;;;;21.60;55.60;;;;;;5408123;26;19929;-40
2024/04/26 05:20:40;;;;;;;;;;;21.60;55.60;;;;;;5398687;26;19929;-41
2024/04/26 05:23:06;;;;;;;;;;;21.60;55.60;;;;;;5425150;26;19993;-39
2024/04/26 05:25:31;;;;;;;;;;;21.60;55.70;;;;;;5425830;26;19929;-39
2024/04/26 05:27:57;;;;;;;;;;;21.60;56.30;;;;;;5426305;26;19957;-39
2024/04/26 05:30:24;;;;;;;;;;;21.60;55.70;;;;;;5426399;26;19929;-39
2024/04/26 05:32:50;;;;;;;;;;;21.60;55.80;;;;;;5418864;26;19929;-39
2024/04/26 05:35:16;;;;;;;;;;;21.50;55.70;;;;;;5411780;26;19936;-40
2024/04/26 05:37:41;;;;;;;;;;;21.50;55.70;;;;;;5426449;26;19929;-39
2024/04/26 05:40:11;;;;;;;;;;;21.50;55.80;;;;;;5426018;26;19929;-39
2024/04/26 05:42:37;;;;;;;;;;;21.50;55.80;;;;;;5426290;26;19929;-39
2024/04/26 05:45:03;;;;;;;;;;;21.50;55.90;;;;;;5425695;26;19936;-41
2024/04/26 05:47:29;;;;;;;;;;;21.50;55.90;;;;;;5426672;26;20001;-39
2024/04/26 05:49:55;;;;;;;;;;;21.50;55.90;;;;;;5426682;26;19937;-39
2024/04/26 05:52:21;;;;;;;;;;;21.50;55.90;;;;;;5426280;26;19936;-40
2024/04/26 05:54:47;;;;;;;;;;;21.50;56.00;;;;;;5425360;26;19929;-40
2024/04/26 05:57:13;;;;;;;;;;;21.40;55.90;;;;;;5425990;26;19975;-40
2024/04/26 05:59:39;;;;;;;;;;;21.40;56.00;;;;;;5426416;26;20733;-40
2024/04/26 06:02:05;;;;;;;;;;;21.40;56.00;;;;;;5419034;26;19929;-40
2024/04/26 06:04:30;;;;;;;;;;;21.40;56.00;;;;;;5416832;26;19930;-42
2024/04/26 06:06:56;;;;;;;;;;;21.40;56.00;;;;;;5423879;26;19936;-40
2024/04/26 06:09:22;;;;;;;;;;;21.40;56.10;;;;;;5425923;26;19936;-44
2024/04/26 06:11:48;;;;;;;;;;;21.40;56.10;;;;;;5425188;26;19929;-40
2024/04/26 06:14:14;;;;;;;;;;;21.30;56.10;;;;;;5425714;26;19929;-39
2024/04/26 06:16:40;;;;;;;;;;;21.30;56.10;;;;;;5425291;26;19940;-39
2024/04/26 06:19:06;;;;;;;;;;;21.30;56.10;;;;;;5426314;26;19936;-42
2024/04/26 06:21:38;;;;;;;;;;;21.30;56.10;;;;;;5425791;26;19929;-41
2024/04/26 06:24:04;;;;;;;;;;;21.30;56.10;;;;;;5424958;26;19936;-42
2024/04/26 06:26:31;;;;;;;;;;;21.30;56.20;;;;;;5424921;26;19936;-39
2024/04/26 06:28:57;;;;;;;;;;;21.30;56.20;;;;;;5425683;26;19933;-40
2024/04/26 06:31:24;;;;;;;;;;;21.20;56.10;;;;;;5425582;26;19978;-42
2024/04/26 06:33:50;;;;;;;;;;;21.20;56.20;;;;;;5425148;26;19929;-40
2024/04/26 06:36:16;;;;;;;;;;;21.20;56.20;;;;;;5425090;26;20396;-42
2024/04/26 06:38:42;;;;;;;;;;;21.20;56.20;;;;;;5425459;26;19929;-42
2024/04/26 06:41:07;;;;;;;;;;;21.20;56.20;;;;;;5425356;26;20384;-40
2024/04/26 06:43:33;;;;;;;;;;;21.20;56.30;;;;;;5425851;26;19933;-41
2024/04/26 06:45:59;;;;;;;;;;;21.20;56.30;;;;;;5424322;26;19944;-40
2024/04/26 06:48:25;;;;;;;;;;;21.20;56.30;;;;;;5425818;26;19949;-40
2024/04/26 06:50:51;;;;;;;;;;;21.10;56.30;;;;;;5425329;26;19953;-41
2024/04/26 06:53:17;;;;;;;;;;;21.10;56.30;;;;;;5425440;26;19929;-40
2024/04/26 06:55:43;;;;;;;;;;;21.10;56.90;;;;;;5425059;26;19941;-40
2024/04/26 06:58:09;;;;;;;;;;;21.10;56.40;;;;;;5422394;26;19936;-42
2024/04/26 07:00:35;;;;;;;;;;;21.10;56.40;;;;;;5425502;26;19937;-40
2024/04/26 07:03:00;;;;;;;;;;;21.10;56.40;;;;;;5417623;26;19929;-40
2024/04/26 07:05:26;;;;;;;;;;;21.10;56.40;;;;;;5423509;26;20762;-39
2024/04/26 07:07:52;;;;;;;;;;;21.10;56.40;;;;;;5422867;26;20254;-44
2024/04/26 07:10:18;;;;;;;;;;;21.10;56.50;;;;;;5425485;26;20352;-40
2024/04/26 07:12:44;;;;;;;;;;;21.00;56.50;;;;;;5424159;26;19940;-41
2024/04/26 07:15:10;;;;;;;;;;;21.00;56.50;;;;;;5425163;26;20365;-39
2024/04/26 07:17:38;;;;;;;;;;;21.00;56.50;;;;;;5424935;26;20250;-39
2024/04/26 07:20:10;;;;;;;;;;;21.00;56.50;;;;;;5423830;26;19936;-40
2024/04/26 07:22:36;;;;;;;;;;;21.00;56.50;;;;;;5393532;26;19936;-41
2024/04/26 07:25:01;;;;;;;;;;;21.00;56.50;;;;;;5423659;26;19960;-40
2024/04/26 07:27:27;;;;;;;;;;;21.00;56.60;;;;;;5424475;26;19941;-41
2024/04/26 07:29:53;;;;;;;;;;;20.90;56.50;;;;;;5424656;26;19936;-40
2024/04/26 07:32:19;;;;;;;;;;;20.90;56.60;;;;;;5423726;26;19936;-40
2024/04/26 07:34:45;;;;;;;;;;;20.90;56.60;;;;;;5424981;26;19974;-40
2024/04/26 07:37:11;;;;;;;;;;;20.90;56.60;;;;;;5424437;26;19929;-40
2024/04/26 07:39:37;;;;;;;;;;;20.90;56.60;;;;;;5425445;26;19936;-40
2024/04/26 07:42:04;;;;;;;;;;;20.90;56.60;;;;;;5423219;26;19965;-39
2024/04/26 07:44:30;;;;;;;;;;;20.90;56.60;;;;;;5424944;26;19936;-39
2024/04/26 07:46:56;;;;;;;;;;;20.90;56.60;;;;;;5424252;26;19929;-40
2024/04/26 07:49:22;;;;;;;;;;;20.90;56.70;;;;;;5424725;26;20385;-40
2024/04/26 07:51:48;;;;;;;;;;;20.90;56.70;;;;;;5424122;26;19929;-40
2024/04/26 07:54:14;;;;;;;;;;;20.90;56.70;;;;;;5424554;26;19936;-39
2024/04/26 07:56:40;;;;;;;;;;;20.80;56.60;;;;;;5423763;26;19929;-40
2024/04/26 07:59:06;;;;;;;;;;;20.80;56.70;;;;;;5425753;26;19937;-39
2024/04/26 08:01:32;;;;;;;;;;;20.80;56.70;;;;;;5422845;26;19940;-39
2024/04/26 08:03:58;;;;;;;;;;;20.80;56.70;;;;;;5425780;26;19963;-39
2024/04/26 08:06:25;;;;;;;;;;;20.80;56.70;;;;;;5427880;26;19936;-40
2024/04/26 08:08:50;;;;;;;;;;;20.80;56.80;;;;;;5427136;26;19965;-40
2024/04/26 08:11:16;;;;;;;;;;;20.80;56.80;;;;;;5427699;26;20262;-40
2024/04/26 08:13:42;;;;;;;;;;;20.80;56.80;;;;;;5427116;26;20262;-40
2024/04/26 08:16:08;;;;;;;;;;;20.80;56.90;;;;;;5427868;26;19929;-43
2024/04/26 08:18:34;;;;;;;;;;;20.70;56.80;;;;;;5427586;26;19975;-40
2024/04/26 08:21:00;;;;;;;;;;;20.70;56.90;;;;;;5426842;26;19945;-39
2024/04/26 08:23:26;;;;;;;;;;;20.70;56.90;;;;;;5427646;26;19929;-40
2024/04/26 08:25:51;;;;;;;;;;;20.70;56.90;;;;;;5427236;26;19936;-39
2024/04/26 08:28:17;;;;;;;;;;;20.70;56.90;;;;;;5427044;26;19932;-40
2024/04/26 08:30:44;;;;;;;;;;;20.70;56.90;;;;;;5427355;26;19929;-40
2024/04/26 08:33:11;;;;;;;;;;;20.70;56.90;;;;;;5427510;26;19933;-40
2024/04/26 08:35:37;;;;;;;;;;;20.70;57.00;;;;;;5428000;26;19929;-39
2024/04/26 08:38:03;;;;;;;;;;;20.70;57.00;;;;;;5426829;26;19929;-39
2024/04/26 08:40:29;;;;;;;;;;;20.60;57.00;;;;;;5427151;26;19929;-40
2024/04/26 08:42:55;;;;;;;;;;;20.60;57.00;;;;;;5426966;26;19929;-40
2024/04/26 08:45:21;;;;;;;;;;;20.60;57.00;;;;;;5427544;26;19936;-39
2024/04/26 08:47:47;;;;;;;;;;;20.60;57.00;;;;;;5426368;26;19929;-39
2024/04/26 08:50:13;;;;;;;;;;;20.60;57.00;;;;;;5428406;26;19933;-39
2024/04/26 08:52:39;;;;;;;;;;;20.60;57.10;;;;;;5427311;26;20404;-40
2024/04/26 08:55:05;;;;;;;;;;;20.60;57.10;;;;;;5426872;26;19928;-40
2024/04/26 08:57:32;;;;;;;;;;;20.60;57.10;;;;;;5426620;26;19929;-40
2024/04/26 09:00:03;;;;;;;;;;;20.60;57.10;;;;;;5395591;26;19929;-40
2024/04/26 09:02:29;;;;;;;;;;;20.60;57.10;;;;;;5419961;26;19933;-41
2024/04/26 09:04:55;;;;;;;;;;;20.50;57.10;;;;;;5427209;26;19936;-40
2024/04/26 09:07:21;;;;;;;;;;;20.50;57.20;;;;;;5423823;26;19929;-39
2024/04/26 09:09:49;;;;;;;;;;;20.50;57.20;;;;;;5426592;26;19936;-40
2024/04/26 09:12:15;;;;;;;;;;;20.50;57.20;;;;;;5407301;26;20372;-40
2024/04/26 09:14:41;;;;;;;;;;;20.50;57.20;;;;;;5426584;26;20020;-39
2024/04/26 09:17:11;;;;;;;;;;;20.50;57.20;;;;;;5426745;26;20951;-39
2024/04/26 09:19:38;;;;;;;;;;;20.50;57.20;;;;;;5427194;26;19929;-40
2024/04/26 09:22:05;;;;;;;;;;;20.50;57.30;;;;;;5426627;26;20353;-40
2024/04/26 09:24:31;;;;;;;;;;;20.50;57.30;;;;;;5427125;26;19937;-39
2024/04/26 09:26:57;;;;;;;;;;;20.40;57.30;;;;;;5426063;26;19936;-39
2024/04/26 09:29:26;;;;;;;;;;;20.40;57.30;;;;;;5426650;26;19964;-41
2024/04/26 09:32:01;;;;;;;;;;;20.40;57.30;;;;;;5424983;26;19929;-40
2024/04/26 09:34:29;;;;;;;;;;;20.40;57.30;;;;;;5416433;26;19949;-41
2024/04/26 09:36:55;;;;;;;;;;;20.40;57.40;;;;;;5426056;26;19929;-39
2024/04/26 09:39:21;;;;;;;;;;;20.40;57.40;;;;;;5389424;26;19930;-40
2024/04/26 09:41:49;;;;;;;;;;;20.40;57.40;;;;;;5388323;26;19929;-39
2024/04/26 09:44:15;;;;;;;;;;;20.40;57.40;;;;;;5414620;26;19936;-40
2024/04/26 09:46:41;;;;;;;;;;;20.30;57.40;;;;;;5381233;26;19929;-40
2024/04/26 09:49:07;;;;;;;;;;;20.30;57.50;;;;;;5425544;26;19979;-40
2024/04/26 09:51:34;;;;;;;;;;;20.30;57.50;;;;;;5426845;26;19936;-40
2024/04/26 09:54:00;;;;;;;;;;;20.30;57.50;;;;;;5426043;26;19937;-40
2024/04/26 09:56:26;;;;;;;;;;;20.30;57.50;;;;;;5426793;26;19983;-40
2024/04/26 09:58:52;;;;;;;;;;;20.30;57.50;;;;;;5425981;26;19929;-41
2024/04/26 10:01:17;;;;;;;;;;;20.30;57.50;;;;;;5424699;26;19944;-40
2024/04/26 10:03:43;;;;;;;;;;;20.30;57.50;;;;;;5420813;26;20753;-40
2024/04/26 10:06:12;;;;;;;;;;;20.20;57.50;;;;;;5426476;26;19929;-42
2024/04/26 10:08:38;;;;;;;;;;;20.20;57.60;;;;;;5426228;26;19929;-40
2024/04/26 10:11:08;;;;;;;;;;;20.20;57.60;;;;;;5426057;26;19929;-40
2024/04/26 10:13:57;;;;;;;;;;;20.20;57.60;;;;;;5426175;26;19932;-41
2024/04/26 10:16:32;;;;;;;;;;;20.20;57.60;;;;;;5416340;26;19929;-40
2024/04/26 10:18:58;;;;;;;;;;;20.20;57.70;;;;;;5380721;26;19929;-39
2024/04/26 10:21:24;;;;;;;;;;;20.20;57.70;;;;;;5425447;26;19929;-40
2024/04/26 10:23:57;;;;;;;;;;;20.20;57.70;;;;;;5425705;26;19998;-40
2024/04/26 10:26:23;;;;;;;;;;;20.20;57.70;;;;;;5425798;26;19935;-48
2024/04/26 10:28:49;;;;;;;;;;;20.10;57.70;;;;;;5425148;26;20595;-42
2024/04/26 10:31:15;;;;;;;;;;;20.10;57.70;;;;;;5423203;26;19929;-40
2024/04/26 10:33:41;;;;;;;;;;;20.10;57.80;;;;;;5419730;26;19940;-41
2024/04/26 10:36:09;;;;;;;;;;;20.10;57.80;;;;;;5425065;26;19929;-41
2024/04/26 10:38:46;;;;;;;;;;;20.10;57.80;;;;;;5425995;26;19936;-41
2024/04/26 10:41:15;;;;;;;;;;;20.10;57.80;;;;;;5425693;26;19959;-40
2024/04/26 10:43:41;;;;;;;;;;;20.00;57.80;;;;;;5425890;26;19929;-39
2024/04/26 10:46:07;;;;;;;;;;;20.00;57.90;;;;;;5425176;26;19929;-43
2024/04/26 10:48:33;;;;;;;;;;;20.00;57.90;;;;;;5426350;26;20667;-39
2024/04/26 10:51:00;;;;;;;;;;;20.00;57.90;;;;;;5425619;26;19937;-40
2024/04/26 10:53:26;;;;;;;;;;;20.00;57.90;;;;;;5425833;26;19929;-41
2024/04/26 10:55:52;;;;;;;;;;;20.00;57.90;;;;;;5425321;26;19935;-40
2024/04/26 10:58:18;;;;;;;;;;;20.00;58.00;;;;;;5426005;26;19936;-39
2024/04/26 11:00:43;;;;;;;;;;;19.90;57.90;;;;;;5424426;26;19936;-40
2024/04/26 11:03:10;;;;;;;;;;;20.00;58.00;;;;;;5385429;26;19932;-40
2024/04/26 11:05:43;;;;;;;;;;;19.90;58.00;;;;;;5421146;26;19935;-39
2024/04/26 11:08:09;;;;;;;;;;;20.00;58.00;;;;;;5425874;26;19935;-39
2024/04/26 11:10:34;;;;;;;;;;;20.00;58.10;;;;;;5425286;26;19928;-41
2024/04/26 11:13:00;;;;;;;;;;;19.90;58.00;;;;;;5422136;26;19945;-39
2024/04/26 11:15:26;;;;;;;;;;;19.90;58.10;;;;;;5419140;26;20632;-40
2024/04/26 11:17:52;;;;;;;;;;;19.90;58.10;;;;;;5424937;26;19929;-39
2024/04/26 11:20:18;;;;;;;;;;;19.90;58.10;;;;;;5425359;26;19936;-39
2024/04/26 11:22:44;;;;;;;;;;;19.90;58.10;;;;;;5424739;26;19962;-40
2024/04/26 11:25:10;;;;;;;;;;;19.90;58.10;;;;;;5424788;26;19929;-39
2024/04/26 11:27:35;;;;;;;;;;;19.90;58.20;;;;;;5425100;26;19929;-39
2024/04/26 11:30:01;;;;;;;;;;;19.80;58.10;;;;;;5424356;26;20467;-39
2024/04/26 11:32:27;;;;;;;;;;;19.80;58.20;;;;;;5423440;26;19929;-40
2024/04/26 11:34:53;;;;;;;;;;;19.80;58.20;;;;;;5428688;26;19975;-39
2024/04/26 11:37:19;;;;;;;;;;;19.80;58.20;;;;;;5428978;26;19940;-40
2024/04/26 11:39:46;;;;;;;;;;;19.80;58.20;;;;;;5427360;26;19940;-40
2024/04/26 11:42:12;;;;;;;;;;;19.80;58.30;;;;;;5428807;26;19929;-40
2024/04/26 11:44:38;;;;;;;;;;;19.80;58.20;;;;;;5428268;26;19991;-42
2024/04/26 11:47:04;;;;;;;;;;;19.70;58.20;;;;;;5428290;26;20017;-43
2024/04/26 11:49:31;;;;;;;;;;;19.80;58.30;;;;;;5428686;26;19937;-41
2024/04/26 11:51:58;;;;;;;;;;;19.80;58.30;;;;;;5427757;26;19974;-41
2024/04/26 11:54:24;;;;;;;;;;;19.80;58.30;;;;;;5428503;26;19975;-39
2024/04/26 11:56:50;;;;;;;;;;;19.70;58.30;;;;;;5427854;26;19929;-39
2024/04/26 11:59:16;;;;;;;;;;;19.70;58.30;;;;;;5428452;26;19935;-44
2024/04/26 12:01:43;;;;;;;;;;;19.70;58.30;;;;;;5419351;26;19930;-40
2024/04/26 12:04:08;;;;;;;;;;;19.70;58.30;;;;;;5428240;26;20741;-40
2024/04/26 12:06:34;;;;;;;;;;;19.70;58.30;;;;;;5428329;26;19929;-40
2024/04/26 12:09:00;;;;;;;;;;;19.70;58.40;;;;;;5427606;26;19943;-44
2024/04/26 12:11:26;;;;;;;;;;;19.60;58.30;;;;;;5427821;26;19936;-40
2024/04/26 12:13:56;;;;;;;;;;;19.60;58.30;;;;;;5427654;26;19928;-40
2024/04/26 12:16:22;;;;;;;;;;;19.70;58.40;;;;;;5427826;26;19936;-40
2024/04/26 12:18:48;;;;;;;;;;;19.60;58.30;;;;;;5427572;26;19929;-42
2024/04/26 12:21:19;;;;;;;;;;;19.60;58.30;;;;;;5428027;26;19945;-40
2024/04/26 12:23:45;;;;;;;;;;;19.60;58.40;;;;;;5427324;26;19933;-40
2024/04/26 12:26:24;;;;;;;;;;;19.60;58.40;;;;;;5427842;26;19935;-40
2024/04/26 12:28:50;;;;;;;;;;;19.60;58.40;;;;;;5396089;26;20374;-40
2024/04/26 12:31:19;;;;;;;;;;;19.60;58.40;;;;;;5426014;26;19929;-40
2024/04/26 12:33:45;;;;;;;;;;;19.60;58.40;;;;;;5421589;26;19940;-39
2024/04/26 12:36:11;;;;;;;;;;;19.60;58.40;;;;;;5427908;26;19929;-40
2024/04/26 12:38:37;;;;;;;;;;;19.60;58.40;;;;;;5428299;26;19946;-42
2024/04/26 12:41:03;;;;;;;;;;;19.60;58.40;;;;;;5426854;26;19937;-40
2024/04/26 12:43:29;;;;;;;;;;;19.60;58.40;;;;;;5426922;26;19929;-40
2024/04/26 12:45:55;;;;;;;;;;;19.60;58.40;;;;;;5426608;26;19975;-40
2024/04/26 12:48:21;;;;;;;;;;;19.60;58.40;;;;;;5428190;26;19936;-42
2024/04/26 12:50:46;;;;;;;;;;;19.60;58.40;;;;;;5427366;26;19935;-40
2024/04/26 12:53:12;;;;;;;;;;;19.60;58.40;;;;;;5396103;26;20362;-40
2024/04/26 12:55:38;;;;;;;;;;;19.60;58.40;;;;;;5426746;26;19928;-41
2024/04/26 12:58:05;;;;;;;;;;;19.60;58.40;;;;;;5427119;26;19936;-40
2024/04/26 13:00:31;;;;;;;;;;;19.60;58.40;;;;;;5427083;26;19939;-40
2024/04/26 13:02:57;;;;;;;;;;;19.60;58.40;;;;;;5405264;26;19933;-40
2024/04/26 13:05:23;;;;;;;;;;;19.60;58.40;;;;;;5427436;26;19936;-40
2024/04/26 13:07:49;;;;;;;;;;;19.60;58.40;;;;;;5426669;26;19936;-39
2024/04/26 13:10:16;;;;;;;;;;;19.60;58.40;;;;;;5427301;26;19929;-41
2024/04/26 13:12:42;;;;;;;;;;;19.60;58.30;;;;;;5426757;26;19975;-40
2024/04/26 13:15:08;;;;;;;;;;;19.60;58.30;;;;;;5425317;26;19929;-39
2024/04/26 13:17:34;;;;;;;;;;;19.60;58.30;;;;;;5426674;26;19941;-40
2024/04/26 13:20:01;;;;;;;;;;;19.60;58.30;;;;;;5425956;26;19975;-40
2024/04/26 13:22:27;;;;;;;;;;;19.60;58.30;;;;;;5425941;26;20385;-40
2024/04/26 13:24:53;;;;;;;;;;;19.60;58.30;;;;;;5422696;26;20374;-39
2024/04/26 13:27:19;;;;;;;;;;;19.60;58.30;;;;;;5426927;26;19935;-40
2024/04/26 13:29:46;;;;;;;;;;;19.60;58.30;;;;;;5426644;26;19933;-41
2024/04/26 13:32:12;;;;;;;;;;;19.70;58.30;;;;;;5422312;26;19933;-41
2024/04/26 13:34:38;;;;;;;;;;;19.60;58.30;;;;;;5426898;26;19929;-40
2024/04/26 13:37:04;;;;;;;;;;;19.60;58.20;;;;;;5426425;26;19933;-40
2024/04/26 13:39:30;;;;;;;;;;;19.70;58.30;;;;;;5426936;26;19933;-43
2024/04/26 13:41:56;;;;;;;;;;;19.70;58.20;;;;;;5426260;26;19940;-40
2024/04/26 13:44:22;;;;;;;;;;;19.70;58.20;;;;;;5425246;26;19940;-39
2024/04/26 13:46:48;;;;;;;;;;;19.70;58.20;;;;;;5424243;26;19936;-40
2024/04/26 13:49:18;;;;;;;;;;;19.70;58.20;;;;;;5414050;26;19929;-40
2024/04/26 13:51:44;;;;;;;;;;;19.70;58.20;;;;;;5426216;26;19940;-39
2024/04/26 13:54:10;;;;;;;;;;;19.70;58.20;;;;;;5426353;26;19929;-41
2024/04/26 13:56:36;;;;;;;;;;;19.70;58.20;;;;;;5424783;26;19933;-41
2024/04/26 13:59:02;;;;;;;;;;;19.70;58.20;;;;;;5426449;26;19932;-41
2024/04/26 14:01:28;;;;;;;;;;;19.70;58.20;;;;;;5421445;26;19939;-42
2024/04/26 14:03:54;;;;;;;;;;;19.80;58.20;;;;;;5423508;26;19941;-40
2024/04/26 14:06:20;;;;;;;;;;;19.80;58.20;;;;;;5426461;26;19929;-39
2024/04/26 14:08:49;;;;;;;;;;;19.80;58.20;;;;;;5425820;26;19933;-40
2024/04/26 14:11:15;;;;;;;;;;;19.80;58.30;;;;;;5413921;26;20381;-42